createdAt,value
2018-10-18T00:01:15.204Z,61.81
2018-10-18T00:03:43.059Z,61.86
2018-10-18T00:06:10.600Z,61.98
2018-10-18T00:08:38.008Z,62.00
2018-10-18T00:11:05.483Z,62.35
2018-10-18T00:13:33.022Z,62.39
2018-10-18T00:16:00.574Z,62.43
2018-10-18T00:18:28.048Z,62.60
2018-10-18T00:20:55.531Z,62.53
2018-10-18T00:23:23.002Z,62.54
2018-10-18T00:25:50.409Z,62.24
2018-10-18T00:28:18.445Z,62.71
2018-10-18T00:30:45.852Z,62.90
2018-10-18T00:33:13.282Z,62.94
2018-10-18T00:35:40.946Z,63.02
2018-10-18T00:38:08.453Z,62.77
2018-10-18T00:40:35.872Z,62.78
2018-10-18T00:43:03.363Z,62.97
2018-10-18T00:45:30.854Z,63.28
2018-10-18T00:47:58.301Z,63.51
2018-10-18T00:50:25.801Z,63.64
2018-10-18T00:52:53.310Z,63.59
2018-10-18T00:55:20.745Z,63.72
2018-10-18T00:57:48.188Z,63.49
2018-10-18T01:00:15.756Z,63.50
2018-10-18T01:02:43.052Z,63.59
2018-10-18T01:05:10.462Z,63.38
2018-10-18T01:07:37.905Z,63.47
2018-10-18T01:10:05.363Z,63.78
2018-10-18T01:12:32.920Z,63.90
2018-10-18T01:15:00.282Z,64.22
2018-10-18T01:17:27.719Z,64.48
2018-10-18T01:19:55.174Z,64.82
2018-10-18T01:22:22.628Z,64.94
2018-10-18T01:24:50.158Z,64.97
2018-10-18T01:27:17.606Z,65.15
2018-10-18T01:29:45.054Z,65.04
2018-10-18T01:32:12.604Z,64.59
2018-10-18T01:34:39.928Z,64.88
2018-10-18T01:37:07.374Z,64.68
2018-10-18T01:39:34.787Z,64.41
2018-10-18T01:42:03.215Z,64.51
2018-10-18T01:44:30.602Z,64.79
2018-10-18T01:46:58.040Z,64.86
2018-10-18T01:49:25.489Z,64.90
2018-10-18T01:51:53.254Z,64.87
2018-10-18T01:54:20.669Z,65.37
2018-10-18T01:56:48.104Z,65.09
2018-10-18T01:59:15.583Z,65.37
2018-10-18T02:01:43.174Z,65.08
2018-10-18T02:04:10.599Z,64.95
2018-10-18T02:06:38.015Z,65.01
2018-10-18T02:09:05.450Z,65.13
2018-10-18T02:11:32.920Z,65.13
2018-10-18T02:14:00.363Z,65.13
2018-10-18T02:16:27.817Z,65.43
2018-10-18T02:18:55.352Z,65.60
2018-10-18T02:21:22.808Z,65.58
2018-10-18T02:23:50.210Z,65.86
2018-10-18T02:26:17.617Z,65.79
2018-10-18T02:28:45.120Z,65.85
2018-10-18T02:31:12.688Z,66.25
2018-10-18T02:33:40.186Z,66.54
2018-10-18T02:36:07.726Z,66.78
2018-10-18T02:38:35.101Z,66.70
2018-10-18T02:41:02.568Z,66.62
2018-10-18T02:43:29.998Z,66.68
2018-10-18T02:45:57.873Z,66.52
2018-10-18T02:48:25.383Z,66.53
2018-10-18T02:50:52.855Z,66.71
2018-10-18T02:53:20.362Z,66.43
2018-10-18T02:55:48.074Z,66.44
2018-10-18T02:58:15.538Z,66.53
2018-10-18T03:00:42.994Z,66.43
2018-10-18T03:03:10.671Z,66.57
2018-10-18T03:05:38.127Z,66.45
2018-10-18T03:08:05.628Z,66.30
2018-10-18T03:10:33.807Z,66.27
2018-10-18T03:13:01.347Z,66.50
2018-10-18T03:15:28.796Z,66.56
2018-10-18T03:17:56.329Z,66.97
2018-10-18T03:20:23.768Z,67.27
2018-10-18T03:22:51.203Z,67.33
2018-10-18T03:25:18.708Z,67.43
2018-10-18T03:27:46.236Z,67.51
2018-10-18T03:30:13.772Z,67.50
2018-10-18T03:32:41.271Z,67.65
2018-10-18T03:35:08.721Z,67.93
2018-10-18T03:37:36.161Z,68.15
2018-10-18T03:40:03.623Z,67.96
2018-10-18T03:42:31.076Z,67.43
2018-10-18T03:44:58.568Z,67.46
2018-10-18T03:47:26.084Z,67.85
2018-10-18T03:49:53.539Z,67.54
2018-10-18T03:52:20.947Z,67.36
2018-10-18T03:54:48.361Z,67.40
2018-10-18T03:57:16.354Z,67.40
2018-10-18T03:59:43.969Z,67.27
2018-10-18T04:02:11.420Z,67.31
2018-10-18T04:04:38.870Z,67.37
2018-10-18T04:07:06.367Z,67.49
2018-10-18T04:09:33.839Z,67.68
2018-10-18T04:12:01.342Z,67.99
2018-10-18T04:14:28.853Z,68.04
2018-10-18T04:16:56.301Z,67.90
2018-10-18T04:19:23.774Z,67.85
2018-10-18T04:21:51.214Z,67.71
2018-10-18T04:24:18.659Z,67.70
2018-10-18T04:26:46.096Z,67.74
2018-10-18T04:29:13.551Z,68.08
2018-10-18T04:31:41.027Z,68.02
2018-10-18T04:34:08.465Z,67.70
2018-10-18T04:36:36.491Z,67.95
2018-10-18T04:39:05.068Z,67.92
2018-10-18T04:41:32.507Z,68.08
2018-10-18T04:43:59.935Z,67.77
2018-10-18T04:46:27.410Z,67.93
2018-10-18T04:48:54.913Z,67.65
2018-10-18T04:51:22.427Z,67.52
2018-10-18T04:53:50.007Z,67.54
2018-10-18T04:56:17.489Z,67.28
2018-10-18T04:58:44.977Z,67.27
2018-10-18T05:01:12.505Z,67.36
2018-10-18T05:03:39.899Z,67.81
2018-10-18T05:06:07.340Z,67.90
2018-10-18T05:08:34.871Z,68.46
2018-10-18T05:11:02.324Z,68.45
2018-10-18T05:13:30.432Z,68.37
2018-10-18T05:15:57.918Z,68.21
2018-10-18T05:18:25.356Z,67.93
2018-10-18T05:20:52.820Z,68.10
2018-10-18T05:23:20.501Z,68.01
2018-10-18T05:25:48.021Z,67.87
2018-10-18T05:28:15.867Z,68.04
2018-10-18T05:30:43.311Z,67.95
2018-10-18T05:33:10.742Z,67.95
2018-10-18T05:35:38.507Z,67.93
2018-10-18T05:38:06.952Z,68.51
2018-10-18T05:40:34.431Z,68.93
2018-10-18T05:43:01.912Z,68.99
2018-10-18T05:45:29.283Z,69.13
2018-10-18T05:47:56.770Z,69.08
2018-10-18T05:50:24.836Z,69.09
2018-10-18T05:52:52.959Z,69.01
2018-10-18T05:55:20.395Z,69.01
2018-10-18T05:57:47.899Z,68.85
2018-10-18T06:00:15.472Z,68.89
2018-10-18T06:02:42.938Z,68.68
2018-10-18T06:05:10.396Z,68.69
2018-10-18T06:07:37.884Z,68.41
2018-10-18T06:10:05.393Z,68.34
2018-10-18T06:12:32.978Z,68.25
2018-10-18T06:15:00.504Z,68.08
2018-10-18T06:17:27.915Z,67.65
2018-10-18T06:19:56.294Z,66.94
2018-10-18T06:22:23.794Z,66.13
2018-10-18T06:24:51.427Z,65.11
2018-10-18T06:27:18.896Z,64.43
2018-10-18T06:29:46.376Z,63.41
2018-10-18T06:32:13.914Z,62.40
2018-10-18T06:34:41.396Z,61.25
2018-10-18T06:37:08.864Z,60.65
2018-10-18T06:39:37.206Z,60.36
2018-10-18T06:42:04.667Z,60.00
2018-10-18T06:44:32.848Z,59.17
2018-10-18T06:47:00.532Z,58.78
2018-10-18T06:49:28.812Z,58.38
2018-10-18T06:51:56.395Z,57.84
2018-10-18T06:54:23.918Z,57.34
2018-10-18T06:56:51.354Z,56.71
2018-10-18T06:59:18.834Z,56.14
2018-10-18T07:01:46.339Z,55.28
2018-10-18T07:04:14.106Z,54.47
2018-10-18T07:06:41.619Z,53.59
2018-10-18T07:09:09.046Z,52.56
2018-10-18T07:11:36.538Z,52.43
2018-10-18T07:14:04.014Z,52.21
2018-10-18T07:16:31.516Z,51.70
2018-10-18T07:18:58.986Z,50.98
2018-10-18T07:21:26.448Z,50.87
2018-10-18T07:23:53.987Z,50.35
2018-10-18T07:26:21.594Z,49.59
2018-10-18T07:28:49.137Z,48.76
2018-10-18T07:31:16.616Z,48.51
2018-10-18T07:33:46.067Z,47.49
2018-10-18T07:36:13.609Z,46.57
2018-10-18T07:38:42.411Z,45.59
2018-10-18T07:41:09.906Z,44.34
2018-10-18T07:43:38.200Z,43.84
2018-10-18T07:46:05.621Z,43.38
2018-10-18T07:48:33.263Z,43.50
2018-10-18T07:51:00.894Z,43.04
2018-10-18T07:53:28.605Z,42.36
2018-10-18T07:55:56.100Z,42.07
2018-10-18T07:58:23.602Z,41.46
2018-10-18T08:00:51.134Z,40.99
2018-10-18T08:03:18.655Z,40.65
2018-10-18T08:05:46.104Z,39.80
2018-10-18T08:08:13.552Z,39.16
2018-10-18T08:10:41.733Z,38.41
2018-10-18T08:13:09.464Z,37.69
2018-10-18T08:15:36.997Z,37.51
2018-10-18T08:18:04.491Z,36.72
2018-10-18T08:20:31.934Z,36.12
2018-10-18T08:22:59.350Z,35.98
2018-10-18T08:25:26.819Z,35.91
2018-10-18T08:27:54.668Z,35.91
2018-10-18T08:30:22.193Z,36.37
2018-10-18T08:32:49.682Z,37.36
2018-10-18T08:35:17.202Z,38.52
2018-10-18T08:37:44.909Z,39.11
2018-10-18T08:40:12.307Z,38.55
2018-10-18T08:42:40.087Z,38.56
2018-10-18T08:45:07.801Z,37.78
2018-10-18T08:47:35.258Z,37.64
2018-10-18T08:50:02.903Z,37.88
2018-10-18T08:52:30.224Z,39.08
2018-10-18T08:54:57.746Z,39.77
2018-10-18T08:57:25.238Z,39.52
2018-10-18T08:59:53.260Z,40.12
2018-10-18T09:02:20.900Z,40.27
2018-10-18T09:04:48.298Z,40.69
2018-10-18T09:07:15.787Z,40.59
2018-10-18T09:09:43.318Z,39.07
2018-10-18T09:12:10.808Z,38.52
2018-10-18T09:14:38.230Z,38.61
2018-10-18T09:17:05.804Z,38.93
2018-10-18T09:19:33.259Z,38.81
2018-10-18T09:22:00.744Z,39.16
2018-10-18T09:24:28.188Z,39.91
2018-10-18T09:26:55.677Z,40.05
2018-10-18T09:29:23.551Z,39.15
2018-10-18T09:31:51.533Z,38.81
2018-10-18T09:34:20.117Z,38.51
2018-10-18T09:36:47.581Z,38.14
2018-10-18T09:39:15.028Z,37.48
2018-10-18T09:41:42.529Z,36.96
2018-10-18T09:44:09.999Z,36.35
2018-10-18T09:46:37.641Z,35.49
2018-10-18T09:49:05.321Z,35.90
2018-10-18T09:51:32.656Z,35.92
2018-10-18T09:54:00.224Z,36.06
2018-10-18T09:56:27.718Z,36.31
2018-10-18T09:58:55.193Z,37.12
2018-10-18T10:04:18.578Z,37.29
2018-10-18T10:06:46.059Z,37.48
2018-10-18T10:09:14.464Z,37.87
2018-10-18T10:11:41.988Z,37.50
2018-10-18T10:14:09.593Z,37.22
2018-10-18T10:16:37.165Z,36.85
2018-10-18T10:19:04.682Z,36.08
2018-10-18T10:21:32.156Z,36.08
2018-10-18T10:24:00.158Z,36.33
2018-10-18T10:26:27.654Z,35.95
2018-10-18T10:28:55.087Z,35.78
2018-10-18T10:31:22.597Z,35.81
2018-10-18T10:33:49.995Z,35.76
2018-10-18T10:36:17.459Z,35.84
2018-10-18T10:38:44.948Z,35.69
2018-10-18T10:41:12.458Z,35.74
2018-10-18T10:43:39.848Z,35.68
2018-10-18T10:46:07.467Z,36.82
2018-10-18T10:48:34.827Z,36.18
2018-10-18T10:51:02.802Z,35.99
2018-10-18T10:53:30.377Z,36.71
2018-10-18T10:55:58.145Z,36.58
2018-10-18T10:58:25.661Z,36.55
2018-10-18T11:00:53.120Z,36.43
2018-10-18T11:03:20.663Z,35.99
2018-10-18T11:05:48.088Z,36.04
2018-10-18T11:08:15.538Z,35.46
2018-10-18T11:10:42.993Z,35.09
2018-10-18T11:13:10.552Z,34.33
2018-10-18T11:15:38.047Z,33.98
2018-10-18T11:18:06.078Z,33.67
2018-10-18T11:20:33.512Z,33.34
2018-10-18T11:23:01.049Z,32.63
2018-10-18T11:25:28.518Z,32.15
2018-10-18T11:27:56.012Z,31.60
2018-10-18T11:30:23.640Z,31.96
2018-10-18T11:32:51.147Z,32.03
2018-10-18T11:35:18.674Z,31.14
2018-10-18T11:37:46.251Z,31.11
2018-10-18T11:40:13.815Z,31.29
2018-10-18T11:42:42.293Z,31.03
2018-10-18T11:45:09.800Z,30.22
2018-10-18T11:47:37.302Z,30.20
2018-10-18T11:50:04.876Z,30.07
2018-10-18T11:52:32.329Z,29.89
2018-10-18T11:55:00.049Z,29.77
2018-10-18T11:57:27.652Z,29.84
2018-10-18T11:59:55.356Z,29.90
2018-10-18T12:02:23.023Z,29.96
2018-10-18T12:04:50.757Z,30.49
2018-10-18T12:07:18.164Z,31.33
2018-10-18T12:09:45.672Z,31.24
2018-10-18T12:12:13.154Z,30.86
2018-10-18T12:14:40.751Z,30.40
2018-10-18T12:17:08.480Z,30.67
2018-10-18T12:19:35.978Z,29.85
2018-10-18T12:22:03.679Z,29.51
2018-10-18T12:24:31.335Z,29.92
2018-10-18T12:26:58.920Z,30.52
2018-10-18T12:29:26.375Z,30.72
2018-10-18T12:31:53.843Z,29.88
2018-10-18T12:34:21.996Z,29.07
2018-10-18T12:36:49.430Z,28.84
2018-10-18T12:39:17.229Z,28.54
2018-10-18T12:41:44.738Z,28.39
2018-10-18T12:44:12.251Z,28.42
2018-10-18T12:46:39.659Z,28.11
2018-10-18T12:49:07.437Z,27.77
2018-10-18T12:51:34.872Z,27.48
2018-10-18T12:54:02.646Z,27.61
2018-10-18T12:56:30.241Z,27.50
2018-10-18T12:58:57.983Z,28.34
2018-10-18T13:01:25.424Z,27.94
2018-10-18T13:03:52.866Z,27.94
2018-10-18T13:06:21.271Z,28.13
2018-10-18T13:08:48.927Z,27.38
2018-10-18T13:11:16.813Z,26.96
2018-10-18T13:13:44.680Z,25.94
2018-10-18T13:16:12.139Z,25.98
2018-10-18T13:18:39.593Z,25.88
2018-10-18T13:21:07.256Z,25.48
2018-10-18T13:23:34.713Z,25.37
2018-10-18T13:26:02.191Z,24.83
2018-10-18T13:28:29.705Z,25.15
2018-10-18T13:30:57.494Z,25.50
2018-10-18T13:33:25.574Z,25.03
2018-10-18T13:35:53.008Z,24.47
2018-10-18T13:38:20.455Z,24.25
2018-10-18T13:40:47.942Z,23.77
2018-10-18T13:43:15.438Z,22.53
2018-10-18T13:45:42.892Z,21.99
2018-10-18T13:48:10.434Z,22.37
2018-10-18T13:50:37.902Z,21.36
2018-10-18T13:53:05.431Z,21.83
2018-10-18T13:55:32.912Z,22.11
2018-10-18T13:58:00.423Z,21.58
2018-10-18T14:00:27.856Z,20.85
2018-10-18T14:02:55.316Z,20.58
2018-10-18T14:05:22.871Z,20.34
2018-10-18T14:07:50.353Z,20.75
2018-10-18T14:10:17.908Z,20.49
2018-10-18T14:12:45.364Z,20.53
2018-10-18T14:15:12.817Z,19.69
2018-10-18T14:17:40.541Z,19.74
2018-10-18T14:20:08.009Z,19.79
2018-10-18T14:22:35.457Z,19.95
2018-10-18T14:25:02.899Z,19.86
2018-10-18T14:27:30.371Z,19.50
2018-10-18T14:29:57.876Z,19.20
2018-10-18T14:32:25.384Z,19.65
2018-10-18T14:34:52.972Z,19.24
2018-10-18T14:37:20.403Z,19.27
2018-10-18T14:39:48.075Z,20.16
2018-10-18T14:42:15.532Z,19.90
2018-10-18T14:44:43.218Z,19.72
2018-10-18T14:47:10.590Z,19.21
2018-10-18T14:49:38.013Z,19.24
2018-10-18T14:52:05.603Z,19.43
2018-10-18T14:54:33.118Z,19.58
2018-10-18T14:57:00.537Z,19.50
2018-10-18T14:59:28.140Z,19.49
2018-10-18T15:01:55.888Z,19.36
2018-10-18T15:04:23.450Z,20.40
2018-10-18T15:06:50.988Z,20.41
2018-10-18T15:09:19.321Z,19.98
2018-10-18T15:11:47.539Z,20.38
2018-10-18T15:14:15.123Z,19.98
2018-10-18T15:16:42.556Z,20.25
2018-10-18T15:19:09.978Z,20.88
2018-10-18T15:21:37.640Z,21.28
2018-10-18T15:24:05.179Z,20.96
2018-10-18T15:26:32.767Z,21.01
2018-10-18T15:29:00.513Z,20.89
2018-10-18T15:31:27.932Z,20.72
2018-10-18T15:33:55.395Z,20.74
2018-10-18T15:36:22.942Z,21.16
2018-10-18T15:38:50.484Z,21.56
2018-10-18T15:41:17.969Z,21.58
2018-10-18T15:43:45.402Z,22.19
2018-10-18T15:46:12.911Z,22.81
2018-10-18T15:48:40.352Z,23.55
2018-10-18T15:51:07.911Z,24.08
2018-10-18T15:53:35.343Z,24.34
2018-10-18T15:56:03.716Z,24.93
2018-10-18T15:58:31.247Z,25.18
2018-10-18T16:00:58.704Z,25.31
2018-10-18T16:03:26.219Z,25.59
2018-10-18T16:05:53.809Z,26.19
2018-10-18T16:08:21.325Z,26.89
2018-10-18T16:10:48.789Z,27.67
2018-10-18T16:13:16.236Z,28.03
2018-10-18T16:15:43.902Z,28.69
2018-10-18T16:18:11.398Z,30.22
2018-10-18T16:20:38.982Z,33.20
2018-10-18T16:23:06.544Z,35.24
2018-10-18T16:25:34.375Z,36.64
2018-10-18T16:28:02.643Z,37.78
2018-10-18T16:30:30.198Z,38.65
2018-10-18T16:32:57.678Z,39.35
2018-10-18T16:35:25.412Z,39.68
2018-10-18T16:37:53.041Z,39.88
2018-10-18T16:40:21.389Z,40.33
2018-10-18T16:42:48.879Z,40.71
2018-10-18T16:45:16.373Z,40.98
2018-10-18T16:47:44.937Z,41.12
2018-10-18T16:50:12.413Z,41.20
2018-10-18T16:52:39.799Z,41.33
2018-10-18T16:55:07.355Z,41.69
2018-10-18T16:57:34.804Z,41.82
2018-10-18T17:00:02.421Z,41.73
2018-10-18T17:02:29.977Z,41.81
2018-10-18T17:04:57.435Z,41.80
2018-10-18T17:07:24.991Z,41.85
2018-10-18T17:09:52.637Z,41.95
2018-10-18T17:12:20.226Z,42.17
2018-10-18T17:14:47.665Z,42.20
2018-10-18T17:17:15.136Z,42.46
2018-10-18T17:19:42.629Z,42.38
2018-10-18T17:22:10.081Z,42.60
2018-10-18T17:24:37.681Z,42.70
2018-10-18T17:27:05.459Z,42.83
2018-10-18T17:29:33.087Z,43.22
2018-10-18T17:32:01.282Z,43.09
2018-10-18T17:34:28.768Z,43.12
2018-10-18T17:36:56.264Z,43.13
2018-10-18T17:39:24.324Z,42.97
2018-10-18T17:41:51.740Z,43.10
2018-10-18T17:44:19.170Z,43.36
2018-10-18T17:46:46.629Z,43.38
2018-10-18T17:49:14.188Z,43.55
2018-10-18T17:51:41.723Z,43.85
2018-10-18T17:54:09.480Z,43.98
2018-10-18T17:56:37.144Z,44.18
2018-10-18T17:59:04.648Z,44.69
2018-10-18T18:01:32.529Z,45.48
2018-10-18T18:04:00.878Z,46.12
2018-10-18T18:06:29.494Z,46.60
2018-10-18T18:08:56.699Z,46.91
2018-10-18T18:11:24.321Z,47.16
2018-10-18T18:13:52.404Z,47.00
2018-10-18T18:16:20.919Z,46.93
2018-10-18T18:18:48.355Z,46.78
2018-10-18T18:21:15.829Z,46.43
2018-10-18T18:23:43.367Z,46.10
2018-10-18T18:26:10.811Z,46.60
2018-10-18T18:28:38.258Z,47.06
2018-10-18T18:31:05.882Z,46.29
2018-10-18T18:33:33.521Z,45.79
2018-10-18T18:36:01.002Z,46.34
2018-10-18T18:38:28.497Z,46.03
2018-10-18T18:40:55.963Z,45.74
2018-10-18T18:43:23.923Z,45.94
2018-10-18T18:45:51.467Z,46.22
2018-10-18T18:48:18.928Z,46.51
2018-10-18T18:50:46.385Z,46.83
2018-10-18T18:53:14.056Z,47.01
2018-10-18T18:55:41.410Z,46.85
2018-10-18T18:58:08.869Z,46.86
2018-10-18T19:00:36.394Z,47.16
2018-10-18T19:03:03.916Z,47.62
2018-10-18T19:05:31.365Z,48.98
2018-10-18T19:07:58.895Z,48.84
2018-10-18T19:10:26.476Z,49.22
2018-10-18T19:12:53.903Z,49.78
2018-10-18T19:15:21.399Z,50.28
2018-10-18T19:17:48.905Z,51.04
2018-10-18T19:20:16.499Z,51.38
2018-10-18T19:22:44.043Z,51.79
2018-10-18T19:25:11.469Z,51.72
2018-10-18T19:27:38.985Z,51.97
2018-10-18T19:30:06.501Z,52.15
2018-10-18T19:32:34.050Z,51.97
2018-10-18T19:35:01.640Z,52.46
2018-10-18T19:37:29.171Z,52.48
2018-10-18T19:39:56.776Z,52.22
2018-10-18T19:42:24.254Z,52.53
2018-10-18T19:44:51.802Z,52.52
2018-10-18T19:47:19.269Z,52.29
2018-10-18T19:49:46.683Z,52.48
2018-10-18T19:52:14.369Z,52.53
2018-10-18T19:54:41.791Z,52.38
2018-10-18T19:57:09.249Z,52.66
2018-10-18T19:59:36.892Z,52.72
2018-10-18T20:02:04.544Z,52.76
2018-10-18T20:04:32.084Z,52.40
2018-10-18T20:06:59.614Z,52.56
2018-10-18T20:09:27.187Z,52.95
2018-10-18T20:11:54.619Z,53.41
2018-10-18T20:14:22.155Z,53.49
2018-10-18T20:16:49.687Z,53.33
2018-10-18T20:19:17.129Z,53.59
2018-10-18T20:21:44.658Z,53.46
2018-10-18T20:24:12.196Z,53.62
2018-10-18T20:26:39.625Z,53.63
2018-10-18T20:29:07.245Z,53.96
2018-10-18T20:31:34.732Z,54.18
2018-10-18T20:34:02.463Z,54.78
2018-10-18T20:36:30.152Z,54.80
2018-10-18T20:38:57.612Z,54.55
2018-10-18T20:41:25.081Z,54.60
2018-10-18T20:43:52.506Z,54.40
2018-10-18T20:46:19.963Z,54.60
2018-10-18T20:48:47.565Z,54.49
2018-10-18T20:51:15.090Z,54.40
2018-10-18T20:53:42.916Z,54.86
2018-10-18T20:56:10.756Z,55.29
2018-10-18T20:58:38.339Z,55.16
2018-10-18T21:01:05.881Z,54.94
2018-10-18T21:03:33.392Z,55.05
2018-10-18T21:06:00.921Z,54.84
2018-10-18T21:08:28.486Z,54.84
2018-10-18T21:10:56.069Z,54.82
2018-10-18T21:13:24.134Z,55.37
2018-10-18T21:15:51.607Z,55.16
2018-10-18T21:18:19.054Z,54.94
2018-10-18T21:20:46.582Z,55.14
2018-10-18T21:23:14.445Z,55.04
2018-10-18T21:25:41.904Z,55.48
2018-10-18T21:28:09.392Z,55.58
2018-10-18T21:30:36.847Z,56.01
2018-10-18T21:33:04.427Z,55.86
2018-10-18T21:35:32.421Z,55.94
2018-10-18T21:37:59.972Z,55.95
2018-10-18T21:40:27.460Z,56.20
2018-10-18T21:42:55.638Z,56.50
2018-10-18T21:45:23.118Z,56.43
2018-10-18T21:47:50.621Z,56.74
2018-10-18T21:50:18.182Z,57.30
2018-10-18T21:52:45.717Z,57.07
2018-10-18T21:55:13.196Z,57.23
2018-10-18T21:57:40.593Z,57.61
2018-10-18T22:00:08.166Z,57.36
2018-10-18T22:02:35.684Z,57.64
2018-10-18T22:05:03.205Z,57.29
2018-10-18T22:07:30.704Z,57.31
2018-10-18T22:09:59.212Z,57.45
2018-10-18T22:12:26.766Z,57.53
2018-10-18T22:14:54.252Z,57.40
2018-10-18T22:17:21.758Z,57.58
2018-10-18T22:19:49.211Z,57.77
2018-10-18T22:22:16.632Z,58.04
2018-10-18T22:24:44.132Z,58.18
2018-10-18T22:27:11.752Z,58.31
2018-10-18T22:29:39.134Z,58.03
2018-10-18T22:32:06.593Z,57.80
2018-10-18T22:34:34.064Z,58.34
2018-10-18T22:37:01.529Z,58.41
2018-10-18T22:39:28.995Z,58.42
2018-10-18T22:41:56.525Z,58.26
2018-10-18T22:44:24.151Z,58.32
2018-10-18T22:46:51.610Z,58.51
2018-10-18T22:49:19.114Z,58.42
2018-10-18T22:51:47.633Z,58.71
2018-10-18T22:54:15.346Z,58.77
2018-10-18T22:56:43.013Z,59.06
2018-10-18T22:59:10.478Z,59.07
2018-10-18T23:01:37.893Z,59.32
2018-10-18T23:04:05.286Z,59.44
2018-10-18T23:06:32.811Z,59.73
2018-10-18T23:09:00.263Z,59.78
2018-10-18T23:11:28.584Z,59.33
2018-10-18T23:13:56.008Z,59.71
2018-10-18T23:16:24.028Z,59.82
2018-10-18T23:18:51.459Z,59.58
2018-10-18T23:21:18.916Z,59.85
2018-10-18T23:23:46.395Z,59.65
2018-10-18T23:26:13.852Z,59.72
2018-10-18T23:28:41.260Z,60.20
2018-10-18T23:31:08.686Z,60.02
2018-10-18T23:33:36.163Z,60.09
2018-10-18T23:36:03.649Z,60.18
2018-10-18T23:38:31.092Z,60.45
2018-10-18T23:40:58.596Z,60.47
2018-10-18T23:43:26.068Z,60.40
2018-10-18T23:45:53.601Z,60.90
2018-10-18T23:48:21.022Z,60.91
2018-10-18T23:50:48.556Z,61.25
2018-10-18T23:53:16.053Z,61.54
2018-10-18T23:55:43.523Z,61.05
2018-10-18T23:58:10.984Z,60.87
